Thomson Spirit — 9HA2336 — position and weather

sailwx.info

Track history (hours):
 
Tides and Currents Weather Stations Pressure Air Temp Water Temp Dewpoint Dewpoint Depression Visibility Wind Speed Wind Dir Waves Ship Positions

Thomson Spirit

Last reported at 2016-Jul-29 19:33 UTC. Time now 2016-Jul-29 19:43 UTC.
Position N 37°59' W 009°19'.

Length 214 m; draft 8 m.

Type: Passenger vessel. MMSI: 248368000.

Date/timePositionNaut miles runAvg speedWind from/ knotsBaromVisibWave heightAir tempDewpointWater temp
2016-Jul-29 19:33N 37°59' W 009°19'1616.5
2016-Jul-29 18:33N 38°15' W 009°20'1616.0
2016-Jul-29 17:32N 38°31' W 009°22'1212.3
2016-Jul-29 16:33N 38°41' W 009°13'5 4.7
2016-Jul-29 15:31N 38°43' W 009°07'0 0.0
2016-Jul-29 14:30N 38°43' W 009°07'0 0.0
2016-Jul-29 13:31N 38°43' W 009°07'0 0.0
2016-Jul-29 12:33N 38°43' W 009°07'0 0.0
2016-Jul-29 11:33N 38°43' W 009°07'0 0.0
2016-Jul-29 10:33N 38°43' W 009°07'0 0.0
2016-Jul-29 09:33N 38°43' W 009°07'0 0.0
2016-Jul-29 08:33N 38°43' W 009°07'0 0.0
2016-Jul-29 07:33N 38°43' W 009°07'0 0.1
2016-Jul-29 06:33N 38°43' W 009°07'10 9.6
2016-Jul-29 05:33N 38°40' W 009°19'1212.5
2016-Jul-29 04:33N 38°38' W 009°35'1211.7
2016-Jul-29 03:33N 38°47' W 009°43'1413.9
2016-Jul-29 02:33N 39°01' W 009°44'1313.5
2016-Jul-29 01:33N 39°14' W 009°44'1413.6
2016-Jul-29 00:33N 39°28' W 009°44'2913.5
2016-Jul-28 22:23N 39°55' W 009°30'4113.5
2016-Jul-28 19:20N 40°32' W 009°06'74 1.5
2016-Jul-26 19:32N 39°25' W 009°45'1915.5
2016-Jul-26 18:18N 39°06' W 009°50'1115.2
2016-Jul-26 17:33N 38°54' W 009°51'1515.5
2016-Jul-26 16:33N 38°39' W 009°50'1615.5
2016-Jul-26 15:33N 38°24' W 009°45'1615.5
2016-Jul-26 14:33N 38°09' W 009°41'1615.7
2016-Jul-26 13:33N 37°53' W 009°37'1615.8
2016-Jul-26 12:33N 37°38' W 009°33'1615.8
2016-Jul-26 11:33N 37°23' W 009°28'1615.8
2016-Jul-26 10:33N 37°07' W 009°24'1616.0
2016-Jul-26 09:33N 36°52' W 009°19'1615.8
2016-Jul-26 08:33N 36°42' W 009°03'18115.1
2016-Jul-25 20:34N 36°04' W 005°23'3 3.1
2016-Jul-25 19:33N 36°07' W 005°23'1111.1
2016-Jul-25 18:34N 35°57' W 005°30'9 2.9
2016-Jul-25 15:34N 36°04' W 005°24'5 0.8
2016-Jul-25 09:29N 36°09' W 005°22'0 0.0
2016-Jul-25 05:28N 36°09' W 005°22'6 6.3
2016-Jul-25 04:33N 36°06' W 005°16'128 4.1
2016-Jul-23 21:33N 36°28' W 002°39'1615.0
2016-Jul-23 20:30N 36°26' W 002°20'2914.4
2016-Jul-23 18:27N 36°45' W 001°51'66 4.8
2016-Jul-23 04:33N 37°32' W 000°53'1413.7
2016-Jul-23 03:33N 37°33' W 000°36'1613.9
2016-Jul-23 02:23N 37°46' W 000°23'1213.9
2016-Jul-23 01:33N 37°56' W 000°15'3110.4
2016-Jul-22 22:33N 38°22' E 000°07'6410.7
2016-Jul-22 16:34N 39°25' W 000°13'62 3.8
2016-Jul-22 00:04N 39°54' E 000°59'612.1
2016-Jul-21 23:33N 39°59' E 001°03'1212.2
2016-Jul-21 22:33N 40°09' E 001°12'1313.1
2016-Jul-21 21:33N 40°20' E 001°21'1313.3
2016-Jul-21 20:33N 40°31' E 001°31'1713.3
2016-Jul-21 19:15N 40°46' E 001°44'1213.6
2016-Jul-21 18:21N 40°56' E 001°53'209 8.1
2016-Jul-20 16:25N 43°20' E 005°17'2 0.2
2016-Jul-20 06:28N 43°21' E 005°20'7 8.1
2016-Jul-20 05:33N 43°16' E 005°12'  
Track history (hours):
 
Tides and Currents Weather Stations Pressure Air Temp Water Temp Dewpoint Dewpoint Depression Visibility Wind Speed Wind Dir Waves Ship Positions

Thomson Spirit

Last reported at 2016-Jul-29 19:33 UTC. Time now 2016-Jul-29 19:43 UTC.
Position N 37°59' W 009°19'.

Length 214 m; draft 8 m.

Type: Passenger vessel. MMSI: 248368000.

Date/timePositionNaut miles runAvg speedWind from/ knotsBaromVisibWave heightAir tempDewpointWater temp
2016-Jul-29 19:33N 37°59' W 009°19'1616.5
2016-Jul-29 18:33N 38°15' W 009°20'1616.0
2016-Jul-29 17:32N 38°31' W 009°22'1212.3
2016-Jul-29 16:33N 38°41' W 009°13'5 4.7
2016-Jul-29 15:31N 38°43' W 009°07'0 0.0
2016-Jul-29 14:30N 38°43' W 009°07'0 0.0
2016-Jul-29 13:31N 38°43' W 009°07'0 0.0
2016-Jul-29 12:33N 38°43' W 009°07'0 0.0
2016-Jul-29 11:33N 38°43' W 009°07'0 0.0
2016-Jul-29 10:33N 38°43' W 009°07'0 0.0
2016-Jul-29 09:33N 38°43' W 009°07'0 0.0
2016-Jul-29 08:33N 38°43' W 009°07'0 0.0
2016-Jul-29 07:33N 38°43' W 009°07'0 0.1
2016-Jul-29 06:33N 38°43' W 009°07'10 9.6
2016-Jul-29 05:33N 38°40' W 009°19'1212.5
2016-Jul-29 04:33N 38°38' W 009°35'1211.7
2016-Jul-29 03:33N 38°47' W 009°43'1413.9
2016-Jul-29 02:33N 39°01' W 009°44'1313.5
2016-Jul-29 01:33N 39°14' W 009°44'1413.6
2016-Jul-29 00:33N 39°28' W 009°44'2913.5
2016-Jul-28 22:23N 39°55' W 009°30'4113.5
2016-Jul-28 19:20N 40°32' W 009°06'74 1.5
2016-Jul-26 19:32N 39°25' W 009°45'1915.5
2016-Jul-26 18:18N 39°06' W 009°50'1115.2
2016-Jul-26 17:33N 38°54' W 009°51'1515.5
2016-Jul-26 16:33N 38°39' W 009°50'1615.5
2016-Jul-26 15:33N 38°24' W 009°45'1615.5
2016-Jul-26 14:33N 38°09' W 009°41'1615.7
2016-Jul-26 13:33N 37°53' W 009°37'1615.8
2016-Jul-26 12:33N 37°38' W 009°33'1615.8
2016-Jul-26 11:33N 37°23' W 009°28'1615.8
2016-Jul-26 10:33N 37°07' W 009°24'1616.0
2016-Jul-26 09:33N 36°52' W 009°19'1615.8
2016-Jul-26 08:33N 36°42' W 009°03'18115.1
2016-Jul-25 20:34N 36°04' W 005°23'3 3.1
2016-Jul-25 19:33N 36°07' W 005°23'1111.1
2016-Jul-25 18:34N 35°57' W 005°30'9 2.9
2016-Jul-25 15:34N 36°04' W 005°24'5 0.8
2016-Jul-25 09:29N 36°09' W 005°22'0 0.0
2016-Jul-25 05:28N 36°09' W 005°22'6 6.3
2016-Jul-25 04:33N 36°06' W 005°16'128 4.1
2016-Jul-23 21:33N 36°28' W 002°39'1615.0
2016-Jul-23 20:30N 36°26' W 002°20'2914.4
2016-Jul-23 18:27N 36°45' W 001°51'66 4.8
2016-Jul-23 04:33N 37°32' W 000°53'1413.7
2016-Jul-23 03:33N 37°33' W 000°36'1613.9
2016-Jul-23 02:23N 37°46' W 000°23'1213.9
2016-Jul-23 01:33N 37°56' W 000°15'3110.4
2016-Jul-22 22:33N 38°22' E 000°07'6410.7
2016-Jul-22 16:34N 39°25' W 000°13'62 3.8
2016-Jul-22 00:04N 39°54' E 000°59'612.1
2016-Jul-21 23:33N 39°59' E 001°03'1212.2
2016-Jul-21 22:33N 40°09' E 001°12'1313.1
2016-Jul-21 21:33N 40°20' E 001°21'1313.3
2016-Jul-21 20:33N 40°31' E 001°31'1713.3
2016-Jul-21 19:15N 40°46' E 001°44'1213.6
2016-Jul-21 18:21N 40°56' E 001°53'209 8.1
2016-Jul-20 16:25N 43°20' E 005°17'2 0.2
2016-Jul-20 06:28N 43°21' E 005°20'7 8.1
2016-Jul-20 05:33N 43°16' E 005°12'  

Dump ship's entire track history